Springfield, IL

8:11 PM CDT on August 26, 2016 (GMT -0500)
Springfield West Side | | Change Station

Elev 604 ft 39.79 °N, 89.69 °W | Updated 25 seconds ago

Light Rain
Light Rain
75.0 °F
Feels Like 75 °F
N
0.0
Wind Variable Wind from East
Gusts 0.0 mph

Today
High -- | Low -- °F
--% Chance of Precip.
Yesterday
High -- | Low -- °F
Precip. -- in
Pressure 30.05 in
Visibility 10.0 miles
Clouds Few 11000 ft
Heat Index 75 °F
Dew Point 70 °F
Humidity 85%
Rainfall 0.00 in
Snow Depth Not available.
6:21 AM 7:38 PM
Waning Crescent, 29% visible
METAR KSPI 270052Z 11005KT 10SM -RA FEW110 24/21 A3006 RMK AO2 RAB2354E11B38 SLP176 P0000 T02390211
Pressure 30.05 in
Visibility 10.0 miles
Clouds Few 11000 ft
Heat Index 75 °F
Dew Point 70 °F
Humidity 85%
Rainfall 0.00 in
Snow Depth Not available.
6:21 AM 7:38 PM
Waning Crescent, 29% visible
METAR KSPI 270052Z 11005KT 10SM -RA FEW110 24/21 A3006 RMK AO2 RAB2354E11B38 SLP176 P0000 T02390211

10-Day Weather Forecast

Almanac

Astronomy

Aug. 26, 2016 Rise Set
Actual Time
Civil Twilight
Nautical Twilight
Astronomical Twilight
Moon
Length of Visible Light
Length of Day
Tomorrow will be .
, % of the Moon is Illuminated

Today's Extremes

State Highs State Lows

Community

WunderPhotos

Upload Photos

1,935,261 photos uploaded!

WunderBlog® & News

Nearby

Air Quality

  Air Quality AQ Index Pollutant
Not available.

Snow Depth

Station Depth Elevation

Earthquake Activity

City Distance Mag. Time & Date
Minimum magnitude displayed is 2.5.

Coastal Water Temperatures

Place Temperature

Stations

Nearby Weather Stations

Station Location Temp. Windchill Dew Point Humidity Wind Precip. Elev Updated Type
                   

Watches & Warnings

There are currently no watches in effect.